createdAt,value
2019-02-16T00:06:59.557Z,1.30
2019-02-16T00:12:59.884Z,1.30
2019-02-16T00:16:19.744Z,1.20
2019-02-16T00:22:39.266Z,1.20
2019-02-16T00:32:38.211Z,1.50
2019-02-16T02:11:31.231Z,0.80
2019-02-16T03:32:41.942Z,0.20
2019-02-16T05:02:45.445Z,-0.70
2019-02-16T05:08:53.823Z,-0.60
2019-02-16T05:11:32.775Z,-0.70
2019-02-16T07:40:04.968Z,0.00
2019-02-16T09:48:51.358Z,5.60
2019-02-16T12:12:47.345Z,9.50
2019-02-16T12:39:31.370Z,12.80
2019-02-16T12:59:58.512Z,15.20
2019-02-16T13:02:36.712Z,16.00
2019-02-16T13:05:24.044Z,16.80
2019-02-16T13:08:11.477Z,16.80
2019-02-16T13:11:01.842Z,16.90
2019-02-16T13:13:42.078Z,15.80
2019-02-16T13:16:36.148Z,17.20
2019-02-16T13:19:19.818Z,16.90
2019-02-16T13:22:06.360Z,17.10
2019-02-16T13:24:50.956Z,17.40
2019-02-16T13:27:50.799Z,18.70
2019-02-16T13:30:37.240Z,19.40
2019-02-16T13:33:38.760Z,19.50
2019-02-16T13:36:29.473Z,19.50
2019-02-16T13:39:26.277Z,18.70
2019-02-16T13:42:15.685Z,18.70
2019-02-16T13:44:52.414Z,20.10
2019-02-16T13:47:30.791Z,20.40
2019-02-16T13:50:11.085Z,20.90
2019-02-16T13:53:24.546Z,19.70
2019-02-16T13:56:14.694Z,19.10
2019-02-16T13:59:08.796Z,21.20
2019-02-16T14:01:55.487Z,20.50
2019-02-16T14:04:38.168Z,20.70
2019-02-16T14:07:24.464Z,20.20
2019-02-16T14:10:05.652Z,19.60
2019-02-16T14:12:52.707Z,22.60
2019-02-16T14:15:44.801Z,22.50
2019-02-16T14:18:13.825Z,21.30
2019-02-16T14:20:42.789Z,20.70
2019-02-16T14:23:11.647Z,21.00
2019-02-16T14:25:45.913Z,19.80
2019-02-16T14:28:14.924Z,20.60
2019-02-16T14:30:43.821Z,20.40
2019-02-16T14:33:13.002Z,20.20
2019-02-16T14:35:41.854Z,19.60
2019-02-16T14:38:27.838Z,20.20
2019-02-16T14:41:00.286Z,20.00
2019-02-16T14:43:33.776Z,19.60
2019-02-16T14:46:05.692Z,19.10
2019-02-16T14:48:34.893Z,18.30
2019-02-16T14:51:03.792Z,17.30
2019-02-16T14:53:32.757Z,16.80
2019-02-16T14:56:01.598Z,17.00
2019-02-16T14:58:33.545Z,17.70
2019-02-16T15:01:02.635Z,16.90
2019-02-16T15:03:31.661Z,16.80
2019-02-16T15:06:00.497Z,16.50
2019-02-16T15:08:32.125Z,16.80
2019-02-16T15:11:03.783Z,17.70
2019-02-16T15:13:32.609Z,17.00
2019-02-16T15:16:01.577Z,16.60
2019-02-16T15:18:30.797Z,16.00
2019-02-16T15:20:59.848Z,15.30
2019-02-16T15:23:31.502Z,15.60
2019-02-16T15:26:01.434Z,15.70
2019-02-16T15:28:30.778Z,15.40
2019-02-16T15:30:59.846Z,15.50
2019-02-16T15:33:29.979Z,15.40
2019-02-16T15:36:01.750Z,14.70
2019-02-16T15:38:33.473Z,14.90
2019-02-16T15:41:08.516Z,14.50
2019-02-16T15:43:40.582Z,14.60
2019-02-16T15:46:09.477Z,14.00
2019-02-16T15:48:38.385Z,13.70
2019-02-16T15:51:07.287Z,13.10
2019-02-16T15:53:40.791Z,12.60
2019-02-16T15:56:10.982Z,12.10
2019-02-16T15:58:40.023Z,11.60
2019-02-16T16:01:09.263Z,11.30
2019-02-16T16:03:41.718Z,11.00
2019-02-16T16:06:10.598Z,10.40
2019-02-16T16:08:51.462Z,9.80
2019-02-16T16:11:36.007Z,9.50
2019-02-16T16:14:38.381Z,9.20
2019-02-16T16:17:28.012Z,9.10
2019-02-16T16:20:31.192Z,9.10
2019-02-16T16:23:25.417Z,9.00
2019-02-16T16:26:19.996Z,8.80
2019-02-16T16:29:00.605Z,8.60
